createdAt,value
2023-02-15T00:02:13.340Z,0.60
2023-02-15T00:04:59.748Z,0.60
2023-02-15T00:07:45.560Z,0.70
2023-02-15T00:10:31.799Z,0.70
2023-02-15T00:13:17.681Z,0.70
2023-02-15T00:16:05.111Z,0.70
2023-02-15T00:18:53.184Z,0.70
2023-02-15T00:21:40.126Z,0.60
2023-02-15T00:24:26.899Z,0.60
2023-02-15T00:27:13.273Z,0.60
2023-02-15T00:29:59.284Z,0.60
2023-02-15T00:32:47.983Z,0.60
2023-02-15T00:35:34.311Z,0.70
2023-02-15T00:38:20.230Z,0.70
2023-02-15T00:41:08.165Z,0.70
2023-02-15T00:43:54.238Z,0.60
2023-02-15T00:46:40.155Z,0.60
2023-02-15T00:49:28.590Z,0.50
2023-02-15T00:52:14.752Z,0.60
2023-02-15T00:55:00.677Z,0.60
2023-02-15T00:57:46.440Z,0.60
2023-02-15T01:00:32.368Z,0.60
2023-02-15T01:03:21.474Z,0.60
2023-02-15T01:06:07.571Z,0.50
2023-02-15T01:08:53.600Z,0.40
2023-02-15T01:11:39.441Z,0.40
2023-02-15T01:14:25.510Z,0.30
2023-02-15T01:17:11.449Z,0.30
2023-02-15T01:19:57.409Z,0.30
2023-02-15T01:22:43.293Z,0.40
2023-02-15T01:25:29.410Z,0.30
2023-02-15T01:28:15.452Z,0.30
2023-02-15T01:31:07.060Z,0.30
2023-02-15T01:33:53.139Z,0.10
2023-02-15T01:36:39.072Z,0.00
2023-02-15T01:39:25.223Z,-0.10
2023-02-15T01:42:12.505Z,-0.10
2023-02-15T01:45:18.795Z,-0.10
2023-02-15T01:48:10.868Z,-0.10
2023-02-15T01:51:02.692Z,0.00
2023-02-15T01:53:54.917Z,0.00
2023-02-15T01:56:42.033Z,0.00
2023-02-15T01:59:28.536Z,0.10
2023-02-15T02:02:17.534Z,0.10
2023-02-15T02:05:07.629Z,0.00
2023-02-15T02:07:56.932Z,0.10
2023-02-15T02:10:42.627Z,-0.10
2023-02-15T02:13:29.103Z,-0.20
2023-02-15T02:16:21.373Z,-0.20
2023-02-15T02:19:44.080Z,-0.20
2023-02-15T02:22:33.155Z,-0.30
2023-02-15T02:25:45.808Z,-0.30
2023-02-15T02:28:47.092Z,-0.40
2023-02-15T02:31:55.255Z,-0.50
2023-02-15T02:34:46.466Z,-0.60
2023-02-15T02:37:52.850Z,-0.50
2023-02-15T02:41:01.603Z,-0.50
2023-02-15T02:44:05.386Z,-0.40
2023-02-15T02:47:00.168Z,-0.40
2023-02-15T02:49:47.956Z,-0.30
2023-02-15T02:52:44.234Z,-0.20
2023-02-15T02:55:56.515Z,-0.20
2023-02-15T02:58:50.285Z,-0.10
2023-02-15T03:01:39.947Z,-0.30
2023-02-15T03:04:33.689Z,-0.30
2023-02-15T03:07:26.893Z,-0.30
2023-02-15T03:10:15.439Z,-0.30
2023-02-15T03:13:03.270Z,-0.20
2023-02-15T03:16:10.844Z,-0.20
2023-02-15T03:19:07.276Z,-0.20
2023-02-15T03:21:58.959Z,-0.20
2023-02-15T03:25:07.763Z,-0.10
2023-02-15T03:27:59.844Z,0.00
2023-02-15T03:30:49.649Z,0.00
2023-02-15T03:33:41.845Z,0.00
2023-02-15T03:36:38.239Z,-0.20
2023-02-15T03:39:54.173Z,-0.20
2023-02-15T03:42:41.600Z,-0.30
2023-02-15T03:45:31.881Z,-0.40
2023-02-15T03:48:19.150Z,-0.40
2023-02-15T03:51:27.840Z,-0.30
2023-02-15T03:54:43.199Z,-0.20
2023-02-15T03:57:48.732Z,-0.10
2023-02-15T04:00:56.814Z,-0.10
2023-02-15T04:03:58.335Z,-0.20
2023-02-15T04:06:45.031Z,-0.20
2023-02-15T04:09:49.679Z,-0.20
2023-02-15T04:12:35.610Z,-0.20
2023-02-15T04:15:40.104Z,-0.10
2023-02-15T04:18:44.634Z,-0.10
2023-02-15T04:21:50.378Z,-0.10
2023-02-15T04:24:54.685Z,0.00
2023-02-15T04:27:49.176Z,0.00
2023-02-15T04:30:35.396Z,0.00
2023-02-15T04:33:21.472Z,-0.10
2023-02-15T04:36:07.512Z,-0.20
2023-02-15T04:38:53.441Z,-0.30
2023-02-15T04:41:39.460Z,-0.30
2023-02-15T04:44:25.362Z,-0.20
2023-02-15T04:47:11.368Z,-0.20
2023-02-15T04:49:58.248Z,-0.30
2023-02-15T04:52:44.433Z,-0.40
2023-02-15T04:55:30.738Z,-0.40
2023-02-15T04:58:16.949Z,-0.40
2023-02-15T05:01:03.134Z,-0.50
2023-02-15T05:03:49.069Z,-0.60
2023-02-15T05:06:35.224Z,-0.50
2023-02-15T05:09:21.296Z,-0.50
2023-02-15T05:12:07.662Z,-0.60
2023-02-15T05:14:53.730Z,-0.60
2023-02-15T05:17:39.977Z,-0.50
2023-02-15T05:20:26.396Z,-0.50
2023-02-15T05:23:12.600Z,-0.60
2023-02-15T05:26:17.533Z,-0.50
2023-02-15T05:29:04.490Z,-0.40
2023-02-15T05:31:50.777Z,-0.30
2023-02-15T05:34:37.033Z,-0.10
2023-02-15T05:37:23.305Z,-0.20
2023-02-15T05:40:10.032Z,-0.20
2023-02-15T05:42:57.405Z,-0.30
2023-02-15T05:45:50.006Z,-0.30
2023-02-15T05:48:36.526Z,-0.40
2023-02-15T05:51:22.853Z,-0.30
2023-02-15T05:54:08.885Z,-0.30
2023-02-15T05:56:54.850Z,-0.30
2023-02-15T05:59:40.772Z,-0.30
2023-02-15T06:02:26.835Z,-0.30
2023-02-15T06:05:13.076Z,-0.30
2023-02-15T06:07:58.992Z,-0.30
2023-02-15T06:10:47.687Z,-0.20
2023-02-15T06:13:38.228Z,-0.10
2023-02-15T06:16:25.304Z,-0.10
2023-02-15T06:19:11.937Z,-0.10
2023-02-15T06:21:58.195Z,-0.20
2023-02-15T06:24:44.120Z,-0.10
2023-02-15T06:27:30.076Z,0.00
2023-02-15T06:30:16.539Z,0.00
2023-02-15T06:33:02.938Z,0.00
2023-02-15T06:35:49.190Z,0.10
2023-02-15T06:38:35.503Z,0.10
2023-02-15T06:41:21.712Z,0.20
2023-02-15T06:44:08.067Z,0.30
2023-02-15T06:46:54.425Z,0.40
2023-02-15T06:49:40.595Z,0.50
2023-02-15T06:52:27.172Z,0.50
2023-02-15T06:55:13.600Z,0.60
2023-02-15T06:57:59.521Z,0.50
2023-02-15T07:00:45.516Z,0.40
2023-02-15T07:03:32.158Z,0.40
2023-02-15T07:06:18.370Z,0.40
2023-02-15T07:09:05.388Z,0.40
2023-02-15T07:12:10.162Z,0.40
2023-02-15T07:14:56.544Z,0.40
2023-02-15T07:17:42.904Z,0.40
2023-02-15T07:20:30.009Z,0.40
2023-02-15T07:23:16.250Z,0.50
2023-02-15T07:26:03.157Z,0.50
2023-02-15T07:28:50.059Z,0.40
2023-02-15T07:31:36.489Z,0.50
2023-02-15T07:34:22.666Z,0.50
2023-02-15T07:37:08.920Z,0.60
2023-02-15T07:39:55.177Z,0.60
2023-02-15T07:42:41.480Z,0.80
2023-02-15T07:45:28.032Z,0.90
2023-02-15T07:48:14.240Z,0.70
2023-02-15T07:51:06.210Z,0.70
2023-02-15T07:53:52.785Z,0.90
2023-02-15T07:56:39.472Z,0.90
2023-02-15T07:59:25.793Z,0.90
2023-02-15T08:02:12.330Z,0.90
2023-02-15T08:04:58.904Z,1.00
2023-02-15T08:07:44.930Z,1.00
2023-02-15T08:10:50.458Z,1.10
2023-02-15T08:13:36.393Z,1.10
2023-02-15T08:16:46.972Z,1.00
2023-02-15T08:19:34.139Z,1.10
2023-02-15T08:22:20.184Z,1.20
2023-02-15T08:25:07.083Z,1.20
2023-02-15T08:27:53.504Z,1.20
2023-02-15T08:30:39.385Z,1.30
2023-02-15T08:33:25.564Z,1.50
2023-02-15T08:36:17.285Z,1.40
2023-02-15T08:39:06.542Z,1.50
2023-02-15T08:41:52.559Z,1.50
2023-02-15T08:44:38.688Z,1.50
2023-02-15T08:47:24.944Z,1.50
2023-02-15T08:50:10.840Z,1.50
2023-02-15T08:52:57.223Z,1.50
2023-02-15T08:55:43.491Z,1.50
2023-02-15T08:58:31.732Z,1.50
2023-02-15T09:01:21.402Z,1.50
2023-02-15T09:04:12.109Z,1.60
2023-02-15T09:06:58.291Z,1.70
2023-02-15T09:09:44.201Z,1.80
2023-02-15T09:12:30.347Z,1.90
2023-02-15T09:15:16.451Z,2.00
2023-02-15T09:18:06.838Z,2.00
2023-02-15T09:20:52.878Z,2.10
2023-02-15T09:23:38.980Z,2.10
2023-02-15T09:26:25.616Z,2.00
2023-02-15T09:29:12.922Z,2.10
2023-02-15T09:31:59.198Z,2.20
2023-02-15T09:34:45.684Z,2.20
2023-02-15T09:37:32.825Z,2.30
2023-02-15T09:40:18.875Z,2.40
2023-02-15T09:43:32.228Z,2.50
2023-02-15T09:46:30.586Z,2.50
2023-02-15T09:49:24.367Z,2.60
2023-02-15T09:52:32.174Z,2.60
2023-02-15T09:55:54.817Z,2.50
2023-02-15T09:59:12.717Z,2.60
2023-02-15T10:02:28.314Z,2.60
2023-02-15T10:05:40.252Z,2.70
2023-02-15T10:08:38.787Z,2.80
2023-02-15T10:11:55.642Z,2.90
2023-02-15T10:15:00.628Z,2.90
2023-02-15T10:18:00.721Z,3.00
2023-02-15T10:21:03.773Z,3.10
2023-02-15T10:23:52.956Z,3.10
2023-02-15T10:26:47.542Z,3.00
2023-02-15T10:29:38.617Z,3.10
2023-02-15T10:32:25.921Z,3.30
2023-02-15T10:35:45.311Z,3.50
2023-02-15T10:38:49.858Z,3.60
2023-02-15T10:41:37.829Z,3.90
2023-02-15T10:44:59.929Z,3.90
2023-02-15T10:48:12.066Z,3.90
2023-02-15T10:51:01.622Z,4.00
2023-02-15T10:54:00.893Z,4.00
2023-02-15T10:56:55.484Z,4.10
2023-02-15T11:00:06.147Z,4.20
2023-02-15T11:03:10.034Z,4.40
2023-02-15T11:06:13.174Z,4.60
2023-02-15T11:09:10.743Z,4.80
2023-02-15T11:12:00.690Z,5.00
2023-02-15T11:14:55.667Z,5.30
2023-02-15T11:17:51.626Z,5.50
2023-02-15T11:20:49.756Z,5.70
2023-02-15T11:23:41.433Z,5.60
2023-02-15T11:26:34.142Z,5.70
2023-02-15T11:29:28.919Z,7.20
2023-02-15T11:32:34.988Z,8.40
2023-02-15T11:35:27.555Z,9.50
2023-02-15T11:38:15.817Z,10.30
2023-02-15T11:41:10.165Z,10.50
2023-02-15T11:44:16.767Z,10.70
2023-02-15T11:47:03.691Z,10.40
2023-02-15T11:49:50.133Z,10.30
2023-02-15T11:52:38.359Z,9.90
2023-02-15T11:55:26.289Z,9.30
2023-02-15T11:58:35.156Z,8.80
2023-02-15T12:01:28.388Z,9.50
2023-02-15T12:04:41.155Z,10.40
2023-02-15T12:07:38.977Z,10.40
2023-02-15T12:10:53.893Z,10.50
2023-02-15T12:13:58.647Z,10.50
2023-02-15T12:16:54.380Z,11.40
2023-02-15T12:19:41.693Z,12.30
2023-02-15T12:22:31.313Z,13.10
2023-02-15T12:25:37.775Z,13.90
2023-02-15T12:28:36.905Z,14.40
2023-02-15T12:31:37.333Z,14.70
2023-02-15T12:34:28.472Z,14.90
2023-02-15T12:37:24.981Z,15.00
2023-02-15T12:40:31.474Z,15.40
2023-02-15T12:43:47.203Z,15.30
2023-02-15T12:46:38.089Z,15.50
2023-02-15T12:49:24.147Z,15.80
2023-02-15T12:52:20.343Z,15.70
2023-02-15T12:55:22.514Z,16.00
2023-02-15T12:58:14.971Z,16.70
2023-02-15T13:01:10.505Z,16.30
2023-02-15T13:04:04.487Z,17.30
2023-02-15T13:06:53.453Z,18.00
2023-02-15T13:09:41.239Z,18.10
2023-02-15T13:12:33.046Z,18.20
2023-02-15T13:15:31.685Z,17.90
2023-02-15T13:18:31.413Z,18.10
2023-02-15T13:21:27.540Z,18.40
2023-02-15T13:24:25.154Z,18.40
2023-02-15T13:27:21.529Z,18.30
2023-02-15T13:30:36.173Z,18.30
2023-02-15T13:33:31.966Z,18.30
2023-02-15T13:36:51.551Z,17.80
2023-02-15T13:39:43.109Z,18.10
2023-02-15T13:42:47.613Z,18.20
2023-02-15T13:46:11.907Z,18.00
2023-02-15T13:49:30.868Z,18.30
2023-02-15T13:52:28.970Z,18.30
2023-02-15T13:55:43.855Z,18.50
2023-02-15T13:58:29.706Z,18.50
2023-02-15T14:01:28.659Z,18.30
2023-02-15T14:04:24.097Z,18.20
2023-02-15T14:07:50.646Z,18.40
2023-02-15T14:11:10.607Z,18.30
2023-02-15T14:14:24.235Z,17.90
2023-02-15T14:17:32.692Z,17.40
2023-02-15T14:20:30.958Z,17.60
2023-02-15T14:23:37.087Z,17.70
2023-02-15T14:26:43.850Z,17.30
2023-02-15T14:29:50.087Z,17.40
2023-02-15T14:32:44.145Z,17.30
2023-02-15T14:35:32.256Z,17.30
2023-02-15T14:38:34.035Z,17.50
2023-02-15T14:41:33.206Z,17.40
2023-02-15T14:44:29.200Z,17.50
2023-02-15T14:47:34.043Z,17.70
2023-02-15T14:50:47.434Z,17.30
2023-02-15T14:53:33.778Z,17.10
2023-02-15T14:56:22.853Z,17.00
2023-02-15T14:59:21.649Z,16.30
2023-02-15T15:02:07.568Z,15.60
2023-02-15T15:05:07.571Z,14.90
2023-02-15T15:07:56.873Z,14.50
2023-02-15T15:10:45.893Z,14.00
2023-02-15T15:13:31.658Z,13.50
2023-02-15T15:16:53.734Z,12.80
2023-02-15T15:19:51.507Z,11.90
2023-02-15T15:22:38.593Z,11.20
2023-02-15T15:25:36.790Z,10.30
2023-02-15T15:28:49.345Z,9.70
2023-02-15T15:31:47.871Z,9.20
2023-02-15T15:35:15.316Z,8.80
2023-02-15T15:38:26.802Z,8.60
2023-02-15T15:41:38.208Z,8.30
2023-02-15T15:44:46.445Z,8.00
2023-02-15T15:48:07.127Z,7.80
2023-02-15T15:50:57.649Z,7.50
2023-02-15T15:53:49.470Z,7.30
2023-02-15T15:56:39.440Z,7.10
2023-02-15T15:59:28.770Z,6.90
2023-02-15T16:02:17.956Z,6.70
2023-02-15T16:05:10.568Z,6.40
2023-02-15T16:07:56.700Z,6.30
2023-02-15T16:10:42.995Z,6.10
2023-02-15T16:13:29.152Z,6.00
2023-02-15T16:16:26.032Z,5.80
2023-02-15T16:19:23.375Z,5.60
2023-02-15T16:22:16.833Z,5.30
2023-02-15T16:25:41.721Z,5.10
2023-02-15T16:28:29.017Z,4.90
2023-02-15T16:31:17.056Z,4.90
2023-02-15T16:34:16.874Z,5.00
2023-02-15T16:37:15.513Z,4.90
2023-02-15T16:40:01.928Z,4.90
2023-02-15T16:42:48.295Z,4.70
2023-02-15T16:45:38.112Z,4.70
2023-02-15T16:48:26.779Z,4.60
2023-02-15T16:51:26.450Z,4.60
2023-02-15T16:54:21.924Z,4.50
2023-02-15T16:57:18.875Z,4.40
2023-02-15T17:00:09.047Z,4.40
2023-02-15T17:03:20.502Z,4.20
2023-02-15T17:06:21.582Z,4.20
2023-02-15T17:09:19.381Z,4.10
2023-02-15T17:12:05.895Z,4.10
2023-02-15T17:14:56.263Z,4.10
2023-02-15T17:17:42.932Z,4.10
2023-02-15T17:20:30.843Z,4.00
2023-02-15T17:23:27.026Z,3.90
2023-02-15T17:26:25.760Z,3.80
2023-02-15T17:29:39.729Z,3.70
2023-02-15T17:32:31.399Z,3.80
2023-02-15T17:35:21.268Z,3.70
2023-02-15T17:38:20.815Z,3.60
2023-02-15T17:41:07.209Z,3.60
2023-02-15T17:43:53.286Z,3.50
2023-02-15T17:46:39.475Z,3.50
2023-02-15T17:49:34.800Z,3.50
2023-02-15T17:52:20.443Z,3.50
2023-02-15T17:55:33.894Z,3.40
2023-02-15T17:58:21.026Z,3.50
2023-02-15T18:01:37.556Z,3.50
2023-02-15T18:04:43.461Z,3.50
2023-02-15T18:07:48.036Z,3.50
2023-02-15T18:10:52.668Z,3.40
2023-02-15T18:13:38.438Z,3.50
2023-02-15T18:16:26.856Z,3.50
2023-02-15T18:19:17.637Z,3.50
2023-02-15T18:22:13.047Z,3.40
2023-02-15T18:24:59.949Z,3.40
2023-02-15T18:27:46.098Z,3.30
2023-02-15T18:30:33.354Z,3.30
2023-02-15T18:33:42.113Z,3.20
2023-02-15T18:36:32.691Z,3.20
2023-02-15T18:39:43.829Z,3.00
2023-02-15T18:42:34.272Z,2.90
2023-02-15T18:45:24.838Z,3.00
2023-02-15T18:48:10.851Z,2.90
2023-02-15T18:50:57.037Z,2.90
2023-02-15T18:53:43.200Z,2.80
2023-02-15T18:56:30.912Z,2.90
2023-02-15T18:59:17.381Z,2.90
2023-02-15T19:02:03.899Z,2.90
2023-02-15T19:04:50.377Z,2.80
2023-02-15T19:07:37.415Z,2.90
2023-02-15T19:10:26.114Z,2.90
2023-02-15T19:13:13.771Z,2.90
2023-02-15T19:16:00.310Z,2.90
2023-02-15T19:18:46.628Z,3.00
2023-02-15T19:21:32.855Z,3.00
2023-02-15T19:24:33.582Z,2.90
2023-02-15T19:27:25.508Z,2.70
2023-02-15T19:30:27.862Z,2.70
2023-02-15T19:33:18.020Z,2.70
2023-02-15T19:36:07.043Z,2.70
2023-02-15T19:38:54.791Z,2.60
2023-02-15T19:41:42.679Z,2.60
2023-02-15T19:44:28.547Z,2.60
2023-02-15T19:47:15.047Z,2.50
2023-02-15T19:50:03.580Z,2.50
2023-02-15T19:52:51.069Z,2.50
2023-02-15T19:55:37.994Z,2.40
2023-02-15T19:58:24.374Z,2.40
2023-02-15T20:01:10.704Z,2.30
2023-02-15T20:03:57.087Z,2.30
2023-02-15T20:06:43.671Z,2.20
2023-02-15T20:09:37.861Z,2.20
2023-02-15T20:12:26.153Z,2.10
2023-02-15T20:15:24.267Z,2.10
2023-02-15T20:18:10.850Z,2.30
2023-02-15T20:20:57.641Z,2.30
2023-02-15T20:23:43.921Z,2.20
2023-02-15T20:26:31.302Z,2.20
2023-02-15T20:29:19.055Z,2.20
2023-02-15T20:32:05.286Z,2.20
2023-02-15T20:34:52.106Z,2.20
2023-02-15T20:37:38.061Z,2.10
2023-02-15T20:40:30.174Z,2.10
2023-02-15T20:43:16.448Z,2.20
2023-02-15T20:46:03.220Z,2.10
2023-02-15T20:48:49.786Z,2.20
2023-02-15T20:51:36.072Z,2.30
2023-02-15T20:54:32.675Z,2.20
2023-02-15T20:57:18.729Z,2.30
2023-02-15T21:00:05.571Z,2.30
2023-02-15T21:02:57.930Z,2.30
2023-02-15T21:05:45.492Z,2.40
2023-02-15T21:08:31.883Z,2.40
2023-02-15T21:11:21.033Z,2.40
2023-02-15T21:14:10.270Z,2.50
2023-02-15T21:16:56.593Z,2.50
2023-02-15T21:19:43.035Z,2.50
2023-02-15T21:22:28.992Z,2.40
2023-02-15T21:25:18.705Z,2.30
2023-02-15T21:28:08.403Z,2.20
2023-02-15T21:30:57.793Z,2.10
2023-02-15T21:33:44.792Z,1.90
2023-02-15T21:36:30.804Z,1.90
2023-02-15T21:39:25.955Z,1.90
2023-02-15T21:42:30.329Z,1.80
2023-02-15T21:45:36.231Z,1.70
2023-02-15T21:48:22.408Z,1.80
2023-02-15T21:51:26.828Z,1.90
2023-02-15T21:54:21.601Z,1.90
2023-02-15T21:57:14.136Z,2.00
2023-02-15T22:00:00.326Z,2.00
2023-02-15T22:02:48.557Z,1.90
2023-02-15T22:05:34.882Z,1.80
2023-02-15T22:08:21.236Z,1.90
2023-02-15T22:11:19.645Z,1.90
2023-02-15T22:14:05.579Z,1.90
2023-02-15T22:16:51.634Z,2.00
2023-02-15T22:19:37.776Z,1.90
2023-02-15T22:22:24.349Z,1.70
2023-02-15T22:25:13.404Z,1.60
2023-02-15T22:27:59.380Z,1.40
2023-02-15T22:30:48.136Z,1.40
2023-02-15T22:33:34.778Z,1.30
2023-02-15T22:36:29.586Z,1.30
2023-02-15T22:39:15.696Z,1.50
2023-02-15T22:42:01.699Z,1.60
2023-02-15T22:44:48.551Z,1.70
2023-02-15T22:47:35.857Z,1.70
2023-02-15T22:50:24.516Z,1.80
2023-02-15T22:53:10.400Z,2.00
2023-02-15T22:55:58.931Z,2.00
2023-02-15T22:58:48.376Z,2.00
2023-02-15T23:01:36.605Z,2.00
2023-02-15T23:04:28.226Z,1.90
2023-02-15T23:07:16.528Z,1.90
2023-02-15T23:10:02.876Z,2.10
2023-02-15T23:13:22.461Z,2.10
2023-02-15T23:16:16.114Z,2.20
2023-02-15T23:19:02.121Z,2.20
2023-02-15T23:21:48.550Z,2.20
2023-02-15T23:24:34.569Z,2.20
2023-02-15T23:27:39.191Z,2.20
2023-02-15T23:30:25.298Z,2.30
2023-02-15T23:33:12.661Z,2.30
2023-02-15T23:35:58.723Z,2.30
2023-02-15T23:38:44.582Z,2.20
2023-02-15T23:41:30.624Z,2.20
2023-02-15T23:44:18.738Z,2.00
2023-02-15T23:47:06.562Z,2.00
2023-02-15T23:49:52.664Z,2.00
2023-02-15T23:52:38.923Z,1.90
2023-02-15T23:55:35.284Z,1.80
2023-02-15T23:58:26.496Z,1.80
